sensor_id;sensor_type;location;lat;lon;timestamp;pressure;altitude;pressure_sealevel;temperature;humidity
29733;BME280;16643;43.158;25.302;2023-02-10T00:01:37;100202.31;;;-6.56;90.85
29733;BME280;16643;43.158;25.302;2023-02-10T00:04:03;100217.53;;;-6.43;90.34
29733;BME280;16643;43.158;25.302;2023-02-10T00:06:29;100221.06;;;-6.41;90.12
29733;BME280;16643;43.158;25.302;2023-02-10T00:08:55;100200.41;;;-6.47;89.86
29733;BME280;16643;43.158;25.302;2023-02-10T00:11:21;100212.28;;;-6.46;90.83
29733;BME280;16643;43.158;25.302;2023-02-10T00:14:05;100207.88;;;-6.37;89.31
29733;BME280;16643;43.158;25.302;2023-02-10T00:16:31;100221.75;;;-6.43;90.38
29733;BME280;16643;43.158;25.302;2023-02-10T00:18:56;100209.41;;;-6.27;90.37
29733;BME280;16643;43.158;25.302;2023-02-10T00:21:21;100210.69;;;-6.20;89.42
29733;BME280;16643;43.158;25.302;2023-02-10T00:23:47;100197.19;;;-6.21;88.84
29733;BME280;16643;43.158;25.302;2023-02-10T00:26:12;100194.31;;;-6.14;88.71
29733;BME280;16643;43.158;25.302;2023-02-10T00:28:38;100201.66;;;-6.05;86.37
29733;BME280;16643;43.158;25.302;2023-02-10T00:31:07;100195.59;;;-6.07;85.71
29733;BME280;16643;43.158;25.302;2023-02-10T00:33:33;100195.41;;;-6.10;84.44
29733;BME280;16643;43.158;25.302;2023-02-10T00:35:58;100184.88;;;-6.28;86.05
29733;BME280;16643;43.158;25.302;2023-02-10T00:38:23;100179.97;;;-6.62;89.42
29733;BME280;16643;43.158;25.302;2023-02-10T00:40:49;100183.16;;;-6.52;89.17
29733;BME280;16643;43.158;25.302;2023-02-10T00:43:14;100176.13;;;-6.45;88.51
29733;BME280;16643;43.158;25.302;2023-02-10T00:45:39;100169.81;;;-6.27;87.27
29733;BME280;16643;43.158;25.302;2023-02-10T00:48:05;100176.63;;;-6.26;86.27
29733;BME280;16643;43.158;25.302;2023-02-10T00:50:30;100177.72;;;-6.22;85.41
29733;BME280;16643;43.158;25.302;2023-02-10T00:52:56;100164.63;;;-6.28;85.77
29733;BME280;16643;43.158;25.302;2023-02-10T00:55:21;100170.81;;;-6.25;85.25
29733;BME280;16643;43.158;25.302;2023-02-10T00:57:47;100169.81;;;-6.27;85.33
29733;BME280;16643;43.158;25.302;2023-02-10T01:00:12;100160.25;;;-6.31;86.10
29733;BME280;16643;43.158;25.302;2023-02-10T01:02:38;100175.38;;;-6.19;85.68
29733;BME280;16643;43.158;25.302;2023-02-10T01:05:03;100178.25;;;-6.14;85.12
29733;BME280;16643;43.158;25.302;2023-02-10T01:07:29;100165.84;;;-6.23;85.25
29733;BME280;16643;43.158;25.302;2023-02-10T01:09:54;100157.22;;;-6.50;87.96
29733;BME280;16643;43.158;25.302;2023-02-10T01:12:20;100166.16;;;-6.67;89.15
29733;BME280;16643;43.158;25.302;2023-02-10T01:14:45;100168.88;;;-6.64;89.28
29733;BME280;16643;43.158;25.302;2023-02-10T01:17:11;100160.34;;;-6.77;89.86
29733;BME280;16643;43.158;25.302;2023-02-10T01:19:36;100167.47;;;-6.72;90.71
29733;BME280;16643;43.158;25.302;2023-02-10T01:22:01;100162.94;;;-6.76;90.57
29733;BME280;16643;43.158;25.302;2023-02-10T01:24:27;100158.91;;;-6.85;91.03
29733;BME280;16643;43.158;25.302;2023-02-10T01:26:52;100156.19;;;-6.88;91.38
29733;BME280;16643;43.158;25.302;2023-02-10T01:29:19;100149.47;;;-7.23;93.33
29733;BME280;16643;43.158;25.302;2023-02-10T01:31:44;100159.91;;;-6.95;92.70
29733;BME280;16643;43.158;25.302;2023-02-10T01:34:10;100153.66;;;-7.12;93.89
29733;BME280;16643;43.158;25.302;2023-02-10T01:36:36;100161.88;;;-7.14;94.30
29733;BME280;16643;43.158;25.302;2023-02-10T01:39:02;100154.50;;;-7.00;93.10
29733;BME280;16643;43.158;25.302;2023-02-10T01:41:27;100154.72;;;-6.97;93.04
29733;BME280;16643;43.158;25.302;2023-02-10T01:46:21;100150.78;;;-6.70;91.69
29733;BME280;16643;43.158;25.302;2023-02-10T01:48:46;100144.72;;;-6.83;91.81
29733;BME280;16643;43.158;25.302;2023-02-10T01:51:12;100148.34;;;-6.68;91.85
29733;BME280;16643;43.158;25.302;2023-02-10T01:53:38;100148.44;;;-6.55;89.91
29733;BME280;16643;43.158;25.302;2023-02-10T01:56:05;100135.56;;;-6.46;87.73
29733;BME280;16643;43.158;25.302;2023-02-10T01:58:31;100146.59;;;-6.57;87.53
29733;BME280;16643;43.158;25.302;2023-02-10T02:00:58;100134.38;;;-6.63;87.79
29733;BME280;16643;43.158;25.302;2023-02-10T02:03:23;100138.81;;;-6.84;90.33
29733;BME280;16643;43.158;25.302;2023-02-10T02:05:49;100137.56;;;-6.66;88.43
29733;BME280;16643;43.158;25.302;2023-02-10T02:08:24;100143.31;;;-6.80;87.72
29733;BME280;16643;43.158;25.302;2023-02-10T02:21:44;100129.53;;;-6.60;87.80
29733;BME280;16643;43.158;25.302;2023-02-10T02:26:51;100129.31;;;-6.63;86.82
29733;BME280;16643;43.158;25.302;2023-02-10T02:34:38;100124.00;;;-7.14;91.93
29733;BME280;16643;43.158;25.302;2023-02-10T02:39:34;100132.44;;;-6.90;90.77
29733;BME280;16643;43.158;25.302;2023-02-10T02:42:22;100117.81;;;-6.94;91.43
29733;BME280;16643;43.158;25.302;2023-02-10T02:44:58;100109.59;;;-7.04;91.49
29733;BME280;16643;43.158;25.302;2023-02-10T02:52:44;100100.91;;;-7.07;94.20
29733;BME280;16643;43.158;25.302;2023-02-10T02:57:51;100091.38;;;-7.11;94.47
29733;BME280;16643;43.158;25.302;2023-02-10T03:00:28;100084.47;;;-7.14;94.87
29733;BME280;16643;43.158;25.302;2023-02-10T03:02:54;100092.03;;;-7.14;95.55
29733;BME280;16643;43.158;25.302;2023-02-10T03:05:21;100076.25;;;-7.11;94.74
29733;BME280;16643;43.158;25.302;2023-02-10T03:07:47;100077.66;;;-7.15;96.11
29733;BME280;16643;43.158;25.302;2023-02-10T03:10:13;100083.13;;;-7.09;95.55
29733;BME280;16643;43.158;25.302;2023-02-10T03:12:39;100083.25;;;-7.19;95.01
29733;BME280;16643;43.158;25.302;2023-02-10T03:15:04;100085.53;;;-7.10;95.00
29733;BME280;16643;43.158;25.302;2023-02-10T03:17:30;100071.59;;;-7.05;94.17
29733;BME280;16643;43.158;25.302;2023-02-10T03:19:55;100070.38;;;-7.10;94.00
29733;BME280;16643;43.158;25.302;2023-02-10T03:22:21;100066.91;;;-7.12;94.40
29733;BME280;16643;43.158;25.302;2023-02-10T03:24:46;100062.38;;;-7.16;94.89
29733;BME280;16643;43.158;25.302;2023-02-10T03:27:11;100075.44;;;-7.10;94.23
29733;BME280;16643;43.158;25.302;2023-02-10T03:29:37;100046.78;;;-7.11;93.95
29733;BME280;16643;43.158;25.302;2023-02-10T03:32:03;100061.63;;;-7.15;92.79
29733;BME280;16643;43.158;25.302;2023-02-10T03:34:30;100051.31;;;-7.18;93.33
29733;BME280;16643;43.158;25.302;2023-02-10T03:36:56;100054.28;;;-7.36;94.13
29733;BME280;16643;43.158;25.302;2023-02-10T03:39:22;100064.69;;;-7.31;93.95
29733;BME280;16643;43.158;25.302;2023-02-10T03:41:47;100045.50;;;-7.41;94.55
29733;BME280;16643;43.158;25.302;2023-02-10T03:44:13;100052.53;;;-7.37;95.45
29733;BME280;16643;43.158;25.302;2023-02-10T03:46:38;100054.59;;;-7.43;95.83
29733;BME280;16643;43.158;25.302;2023-02-10T03:49:04;100049.66;;;-7.41;94.84
29733;BME280;16643;43.158;25.302;2023-02-10T03:51:29;100045.25;;;-7.44;94.91
29733;BME280;16643;43.158;25.302;2023-02-10T03:53:55;100038.69;;;-7.53;95.92
29733;BME280;16643;43.158;25.302;2023-02-10T03:56:20;100046.50;;;-7.50;96.32
29733;BME280;16643;43.158;25.302;2023-02-10T03:58:46;100033.44;;;-7.56;96.27
29733;BME280;16643;43.158;25.302;2023-02-10T04:01:12;100047.03;;;-7.43;95.59
29733;BME280;16643;43.158;25.302;2023-02-10T04:03:38;100054.28;;;-7.24;93.23
29733;BME280;16643;43.158;25.302;2023-02-10T04:06:04;100040.09;;;-7.22;92.55
29733;BME280;16643;43.158;25.302;2023-02-10T04:08:29;100031.69;;;-7.34;91.72
29733;BME280;16643;43.158;25.302;2023-02-10T04:10:55;100024.66;;;-7.50;94.22
29733;BME280;16643;43.158;25.302;2023-02-10T04:13:20;100028.72;;;-7.52;94.05
29733;BME280;16643;43.158;25.302;2023-02-10T04:15:46;100005.88;;;-7.42;94.17
29733;BME280;16643;43.158;25.302;2023-02-10T04:18:12;100014.44;;;-7.40;93.91
29733;BME280;16643;43.158;25.302;2023-02-10T04:20:38;100017.97;;;-7.61;94.83
29733;BME280;16643;43.158;25.302;2023-02-10T04:23:03;100025.28;;;-7.76;96.28
29733;BME280;16643;43.158;25.302;2023-02-10T04:25:28;100031.88;;;-7.54;94.86
29733;BME280;16643;43.158;25.302;2023-02-10T04:27:54;100034.41;;;-7.43;92.75
29733;BME280;16643;43.158;25.302;2023-02-10T04:30:19;100038.25;;;-7.48;93.14
29733;BME280;16643;43.158;25.302;2023-02-10T04:32:45;100015.88;;;-7.55;93.20
29733;BME280;16643;43.158;25.302;2023-02-10T04:35:10;100024.53;;;-7.51;93.46
29733;BME280;16643;43.158;25.302;2023-02-10T04:37:36;100035.84;;;-7.46;93.49
29733;BME280;16643;43.158;25.302;2023-02-10T04:40:01;100039.16;;;-7.36;92.10
29733;BME280;16643;43.158;25.302;2023-02-10T04:42:26;100045.06;;;-7.23;90.89
29733;BME280;16643;43.158;25.302;2023-02-10T04:44:58;100035.63;;;-7.26;87.33
29733;BME280;16643;43.158;25.302;2023-02-10T04:47:27;100035.72;;;-7.24;87.04
29733;BME280;16643;43.158;25.302;2023-02-10T04:49:52;100025.41;;;-7.27;87.09
29733;BME280;16643;43.158;25.302;2023-02-10T04:52:18;100037.81;;;-7.30;87.15
29733;BME280;16643;43.158;25.302;2023-02-10T04:54:43;100023.31;;;-7.33;87.80
29733;BME280;16643;43.158;25.302;2023-02-10T04:57:08;100018.06;;;-7.36;88.20
29733;BME280;16643;43.158;25.302;2023-02-10T04:59:34;100032.88;;;-7.52;88.62
29733;BME280;16643;43.158;25.302;2023-02-10T05:01:59;100023.66;;;-7.40;87.51
29733;BME280;16643;43.158;25.302;2023-02-10T05:04:25;100025.31;;;-7.41;87.01
29733;BME280;16643;43.158;25.302;2023-02-10T05:06:50;100036.41;;;-7.39;86.30
29733;BME280;16643;43.158;25.302;2023-02-10T05:09:16;100034.97;;;-7.47;87.05
29733;BME280;16643;43.158;25.302;2023-02-10T05:11:41;78296.75;;;-144.12;87.05
29733;BME280;16643;43.158;25.302;2023-02-10T05:14:07;100029.59;;;-7.63;87.60
29733;BME280;16643;43.158;25.302;2023-02-10T05:16:32;100041.31;;;-7.63;88.99
29733;BME280;16643;43.158;25.302;2023-02-10T05:18:58;100049.66;;;-7.53;87.98
29733;BME280;16643;43.158;25.302;2023-02-10T05:21:23;100037.69;;;-7.55;86.67
29733;BME280;16643;43.158;25.302;2023-02-10T05:23:49;100050.75;;;-7.61;88.20
29733;BME280;16643;43.158;25.302;2023-02-10T05:26:14;100056.25;;;-7.55;87.13
29733;BME280;16643;43.158;25.302;2023-02-10T05:28:39;100051.53;;;-7.62;87.40
29733;BME280;16643;43.158;25.302;2023-02-10T05:31:05;100060.47;;;-7.89;89.71
29733;BME280;16643;43.158;25.302;2023-02-10T05:33:32;100060.97;;;-7.71;89.78
29733;BME280;16643;43.158;25.302;2023-02-10T05:35:57;100065.25;;;-7.58;88.31
29733;BME280;16643;43.158;25.302;2023-02-10T05:38:22;100058.22;;;-7.51;86.86
29733;BME280;16643;43.158;25.302;2023-02-10T05:40:48;100048.59;;;-7.56;87.60
29733;BME280;16643;43.158;25.302;2023-02-10T05:43:14;100052.75;;;-7.57;88.20
29733;BME280;16643;43.158;25.302;2023-02-10T05:45:40;100042.31;;;-7.61;88.57
29733;BME280;16643;43.158;25.302;2023-02-10T05:48:07;100059.31;;;-7.59;88.55
29733;BME280;16643;43.158;25.302;2023-02-10T05:50:33;100057.13;;;-7.54;87.67
29733;BME280;16643;43.158;25.302;2023-02-10T05:52:58;100066.34;;;-7.55;87.78
29733;BME280;16643;43.158;25.302;2023-02-10T05:55:24;100045.06;;;-7.47;87.92
29733;BME280;16643;43.158;25.302;2023-02-10T05:57:50;100066.78;;;-7.37;87.59
29733;BME280;16643;43.158;25.302;2023-02-10T06:00:16;100072.59;;;-7.50;86.79
29733;BME280;16643;43.158;25.302;2023-02-10T06:02:42;100061.41;;;-7.53;87.87
29733;BME280;16643;43.158;25.302;2023-02-10T06:05:08;100067.09;;;-7.56;88.37
29733;BME280;16643;43.158;25.302;2023-02-10T06:07:33;100044.31;;;-7.57;88.78
29733;BME280;16643;43.158;25.302;2023-02-10T06:09:58;100066.56;;;-7.52;89.42
29733;BME280;16643;43.158;25.302;2023-02-10T06:12:24;100066.03;;;-7.36;89.45
29733;BME280;16643;43.158;25.302;2023-02-10T06:14:49;100066.69;;;-7.27;90.30
29733;BME280;16643;43.158;25.302;2023-02-10T06:17:15;100073.59;;;-7.13;90.63
29733;BME280;16643;43.158;25.302;2023-02-10T06:19:40;100070.50;;;-6.97;91.10
29733;BME280;16643;43.158;25.302;2023-02-10T06:22:07;100078.06;;;-6.85;91.79
29733;BME280;16643;43.158;25.302;2023-02-10T06:24:33;100088.34;;;-6.71;91.80
29733;BME280;16643;43.158;25.302;2023-02-10T06:26:59;100093.81;;;-6.65;91.00
29733;BME280;16643;43.158;25.302;2023-02-10T06:29:24;100085.28;;;-6.67;90.90
29733;BME280;16643;43.158;25.302;2023-02-10T06:31:50;100097.56;;;-6.60;91.38
29733;BME280;16643;43.158;25.302;2023-02-10T06:34:15;100095.53;;;-6.40;92.13
29733;BME280;16643;43.158;25.302;2023-02-10T06:36:41;100100.44;;;-6.30;92.08
29733;BME280;16643;43.158;25.302;2023-02-10T06:39:07;100101.84;;;-6.22;92.35
29733;BME280;16643;43.158;25.302;2023-02-10T06:41:32;100107.41;;;-6.14;92.51
29733;BME280;16643;43.158;25.302;2023-02-10T06:43:58;100117.13;;;-5.96;92.21
29733;BME280;16643;43.158;25.302;2023-02-10T06:46:24;100120.97;;;-5.89;92.31
29733;BME280;16643;43.158;25.302;2023-02-10T06:48:50;100115.09;;;-5.75;90.95
29733;BME280;16643;43.158;25.302;2023-02-10T06:51:15;100114.97;;;-5.65;90.83
29733;BME280;16643;43.158;25.302;2023-02-10T06:53:40;100122.50;;;-5.53;89.71
29733;BME280;16643;43.158;25.302;2023-02-10T06:56:07;100113.41;;;-5.50;89.61
29733;BME280;16643;43.158;25.302;2023-02-10T06:58:33;100128.03;;;-5.45;89.16
29733;BME280;16643;43.158;25.302;2023-02-10T07:00:58;100138.78;;;-5.36;89.15
29733;BME280;16643;43.158;25.302;2023-02-10T07:03:25;100126.69;;;-5.27;88.57
29733;BME280;16643;43.158;25.302;2023-02-10T07:05:51;100122.16;;;-5.20;88.60
29733;BME280;16643;43.158;25.302;2023-02-10T07:08:16;100136.94;;;-5.26;88.75
29733;BME280;16643;43.158;25.302;2023-02-10T07:10:42;100141.16;;;-5.13;89.16
29733;BME280;16643;43.158;25.302;2023-02-10T07:13:07;100137.84;;;-4.99;89.37
29733;BME280;16643;43.158;25.302;2023-02-10T07:15:33;100142.50;;;-4.92;89.24
29733;BME280;16643;43.158;25.302;2023-02-10T07:17:58;100135.69;;;-4.80;89.83
29733;BME280;16643;43.158;25.302;2023-02-10T07:20:24;100133.03;;;-4.68;89.60
29733;BME280;16643;43.158;25.302;2023-02-10T07:22:49;100143.06;;;-4.56;87.56
29733;BME280;16643;43.158;25.302;2023-02-10T07:25:16;100139.56;;;-4.58;87.89
29733;BME280;16643;43.158;25.302;2023-02-10T07:27:42;100142.41;;;-4.67;87.72
29733;BME280;16643;43.158;25.302;2023-02-10T07:30:09;100147.88;;;-4.74;87.36
29733;BME280;16643;43.158;25.302;2023-02-10T07:32:35;100142.31;;;-4.95;89.08
29733;BME280;16643;43.158;25.302;2023-02-10T07:35:00;100148.09;;;-4.97;90.45
29733;BME280;16643;43.158;25.302;2023-02-10T07:37:26;100138.63;;;-4.87;89.54
29733;BME280;16643;43.158;25.302;2023-02-10T07:39:51;100138.22;;;-4.93;89.90
29733;BME280;16643;43.158;25.302;2023-02-10T07:42:17;100151.56;;;-4.82;87.72
29733;BME280;16643;43.158;25.302;2023-02-10T07:44:42;100149.03;;;-4.56;86.14
29733;BME280;16643;43.158;25.302;2023-02-10T07:47:09;100146.78;;;-4.10;85.68
29733;BME280;16643;43.158;25.302;2023-02-10T07:49:35;100166.53;;;-3.63;83.67
29733;BME280;16643;43.158;25.302;2023-02-10T07:52:00;100151.75;;;-3.26;81.36
29733;BME280;16643;43.158;25.302;2023-02-10T07:54:26;100161.41;;;-3.06;79.20
29733;BME280;16643;43.158;25.302;2023-02-10T07:56:51;100156.56;;;-2.87;80.03
29733;BME280;16643;43.158;25.302;2023-02-10T07:59:16;100158.50;;;-2.52;78.15
29733;BME280;16643;43.158;25.302;2023-02-10T08:01:42;100157.13;;;-2.31;76.33
29733;BME280;16643;43.158;25.302;2023-02-10T08:04:11;100157.13;;;-2.31;76.79
29733;BME280;16643;43.158;25.302;2023-02-10T08:06:36;100146.03;;;-2.47;75.53
29733;BME280;16643;43.158;25.302;2023-02-10T08:09:02;100150.13;;;-2.66;77.09
29733;BME280;16643;43.158;25.302;2023-02-10T08:11:27;100147.31;;;-2.70;80.21
29733;BME280;16643;43.158;25.302;2023-02-10T08:13:53;100140.72;;;-2.36;79.23
29733;BME280;16643;43.158;25.302;2023-02-10T08:16:18;100155.06;;;-2.22;78.10
29733;BME280;16643;43.158;25.302;2023-02-10T08:18:44;100155.00;;;-1.91;75.08
29733;BME280;16643;43.158;25.302;2023-02-10T08:21:09;100150.72;;;-1.75;73.99
29733;BME280;16643;43.158;25.302;2023-02-10T08:23:35;100158.19;;;-1.46;75.72
29733;BME280;16643;43.158;25.302;2023-02-10T08:26:04;100161.66;;;-1.28;73.72
29733;BME280;16643;43.158;25.302;2023-02-10T08:28:30;100156.75;;;-1.57;73.29
29733;BME280;16643;43.158;25.302;2023-02-10T08:30:58;100160.34;;;-1.54;72.27
29733;BME280;16643;43.158;25.302;2023-02-10T08:33:24;100169.66;;;-1.38;71.90
29733;BME280;16643;43.158;25.302;2023-02-10T08:35:49;100183.91;;;-1.25;71.19
29733;BME280;16643;43.158;25.302;2023-02-10T08:38:14;100170.38;;;-1.06;69.74
29733;BME280;16643;43.158;25.302;2023-02-10T08:40:40;100159.94;;;-1.45;67.56
29733;BME280;16643;43.158;25.302;2023-02-10T08:43:05;100164.56;;;-1.38;70.44
29733;BME280;16643;43.158;25.302;2023-02-10T08:45:31;100167.66;;;-1.43;68.87
29733;BME280;16643;43.158;25.302;2023-02-10T08:47:56;100164.56;;;-1.38;67.83
29733;BME280;16643;43.158;25.302;2023-02-10T08:50:21;100166.31;;;-1.37;65.75
29733;BME280;16643;43.158;25.302;2023-02-10T08:52:47;100188.63;;;-1.49;64.39
29733;BME280;16643;43.158;25.302;2023-02-10T08:55:12;100172.03;;;-1.41;63.62
29733;BME280;16643;43.158;25.302;2023-02-10T08:57:38;100172.59;;;-1.47;64.60
29733;BME280;16643;43.158;25.302;2023-02-10T09:00:06;100168.25;;;-1.49;63.09
29733;BME280;16643;43.158;25.302;2023-02-10T09:02:32;100173.75;;;-1.74;60.88
29733;BME280;16643;43.158;25.302;2023-02-10T09:04:57;100152.00;;;-2.00;66.18
29733;BME280;16643;43.158;25.302;2023-02-10T09:07:22;100164.09;;;-1.63;68.08
29733;BME280;16643;43.158;25.302;2023-02-10T09:09:48;100162.03;;;-1.20;68.55
29733;BME280;16643;43.158;25.302;2023-02-10T09:12:13;100163.69;;;-0.87;67.15
29733;BME280;16643;43.158;25.302;2023-02-10T09:14:39;100179.41;;;-0.79;65.11
29733;BME280;16643;43.158;25.302;2023-02-10T09:17:05;100161.56;;;-0.78;65.66
29733;BME280;16643;43.158;25.302;2023-02-10T09:19:33;100158.97;;;-0.79;65.20
29733;BME280;16643;43.158;25.302;2023-02-10T09:21:59;100157.53;;;-1.08;70.90
29733;BME280;16643;43.158;25.302;2023-02-10T09:24:24;100151.22;;;-0.98;71.69
29733;BME280;16643;43.158;25.302;2023-02-10T09:26:50;100156.50;;;-1.29;68.19
29733;BME280;16643;43.158;25.302;2023-02-10T09:29:15;100157.44;;;-1.27;72.73
29733;BME280;16643;43.158;25.302;2023-02-10T09:31:41;100151.72;;;-1.05;72.53
29733;BME280;16643;43.158;25.302;2023-02-10T09:34:06;100147.06;;;-0.96;73.64
29733;BME280;16643;43.158;25.302;2023-02-10T09:36:32;100147.03;;;-0.80;72.85
29733;BME280;16643;43.158;25.302;2023-02-10T09:38:57;100142.19;;;-0.74;72.58
29733;BME280;16643;43.158;25.302;2023-02-10T09:49:01;100129.66;;;-0.32;72.07
29733;BME280;16643;43.158;25.302;2023-02-10T09:53:54;100131.25;;;-0.71;70.96
29733;BME280;16643;43.158;25.302;2023-02-10T09:56:20;100124.94;;;-0.43;70.51
29733;BME280;16643;43.158;25.302;2023-02-10T09:58:48;100121.59;;;-0.42;68.31
29733;BME280;16643;43.158;25.302;2023-02-10T10:01:15;100119.84;;;-0.06;68.05
29733;BME280;16643;43.158;25.302;2023-02-10T10:03:45;100125.09;;;0.17;67.57
29733;BME280;16643;43.158;25.302;2023-02-10T10:06:14;100115.75;;;0.57;68.04
29733;BME280;16643;43.158;25.302;2023-02-10T10:11:24;100107.66;;;1.09;65.54
29733;BME280;16643;43.158;25.302;2023-02-10T10:13:50;100103.66;;;1.38;64.35
29733;BME280;16643;43.158;25.302;2023-02-10T10:16:21;100108.66;;;1.56;63.63
29733;BME280;16643;43.158;25.302;2023-02-10T10:21:43;100131.19;;;1.64;61.83
29733;BME280;16643;43.158;25.302;2023-02-10T10:27:01;100093.72;;;2.14;62.48
29733;BME280;16643;43.158;25.302;2023-02-10T10:32:18;100093.00;;;2.18;59.83
29733;BME280;16643;43.158;25.302;2023-02-10T10:34:51;100091.22;;;1.92;60.13
29733;BME280;16643;43.158;25.302;2023-02-10T10:37:18;100079.06;;;1.64;61.56
29733;BME280;16643;43.158;25.302;2023-02-10T10:39:45;100077.56;;;1.70;63.13
29733;BME280;16643;43.158;25.302;2023-02-10T10:44:46;100084.06;;;1.38;60.68
29733;BME280;16643;43.158;25.302;2023-02-10T10:47:18;100080.28;;;1.29;62.09
29733;BME280;16643;43.158;25.302;2023-02-10T10:49:45;100073.00;;;1.17;62.51
29733;BME280;16643;43.158;25.302;2023-02-10T10:54:48;100070.44;;;1.39;62.39
29733;BME280;16643;43.158;25.302;2023-02-10T10:57:13;100072.75;;;1.11;61.02
29733;BME280;16643;43.158;25.302;2023-02-10T10:59:42;100061.66;;;0.69;63.87
29733;BME280;16643;43.158;25.302;2023-02-10T11:02:29;100066.03;;;0.92;63.76
29733;BME280;16643;43.158;25.302;2023-02-10T11:05:13;100058.97;;;0.87;65.39
29733;BME280;16643;43.158;25.302;2023-02-10T11:07:40;100059.38;;;0.75;64.08
29733;BME280;16643;43.158;25.302;2023-02-10T11:10:15;100062.94;;;1.22;64.51
29733;BME280;16643;43.158;25.302;2023-02-10T11:12:45;100059.25;;;1.15;61.99
29733;BME280;16643;43.158;25.302;2023-02-10T11:17:51;100045.19;;;0.83;62.76
29733;BME280;16643;43.158;25.302;2023-02-10T11:20:26;100042.84;;;0.67;64.96
29733;BME280;16643;43.158;25.302;2023-02-10T11:22:58;100038.47;;;1.07;66.43
29733;BME280;16643;43.158;25.302;2023-02-10T11:27:56;100035.72;;;1.48;63.40
29733;BME280;16643;43.158;25.302;2023-02-10T11:30:29;100038.19;;;1.67;62.39
29733;BME280;16643;43.158;25.302;2023-02-10T11:32:55;100032.25;;;1.92;62.33
29733;BME280;16643;43.158;25.302;2023-02-10T11:35:21;100026.56;;;2.00;64.45
29733;BME280;16643;43.158;25.302;2023-02-10T11:38:05;100021.53;;;2.03;62.10
29733;BME280;16643;43.158;25.302;2023-02-10T11:40:46;100015.81;;;1.87;62.90
29733;BME280;16643;43.158;25.302;2023-02-10T11:43:13;100018.09;;;1.55;62.69
29733;BME280;16643;43.158;25.302;2023-02-10T11:45:49;100022.28;;;1.53;64.42
29733;BME280;16643;43.158;25.302;2023-02-10T11:48:19;100022.09;;;1.49;66.39
29733;BME280;16643;43.158;25.302;2023-02-10T11:50:44;100018.19;;;1.80;64.62
29733;BME280;16643;43.158;25.302;2023-02-10T11:53:29;100007.84;;;2.03;64.84
29733;BME280;16643;43.158;25.302;2023-02-10T11:56:01;100011.28;;;2.29;61.91
29733;BME280;16643;43.158;25.302;2023-02-10T12:11:54;99989.00;;;1.77;60.09
29733;BME280;16643;43.158;25.302;2023-02-10T12:16:49;99976.13;;;1.75;63.81
29733;BME280;16643;43.158;25.302;2023-02-10T12:19:25;99973.38;;;1.71;62.16
29733;BME280;16643;43.158;25.302;2023-02-10T12:24:56;99968.34;;;1.98;63.92
29733;BME280;16643;43.158;25.302;2023-02-10T12:42:42;99964.44;;;2.60;59.47
29733;BME280;16643;43.158;25.302;2023-02-10T12:53:20;99964.66;;;2.40;59.24
29733;BME280;16643;43.158;25.302;2023-02-10T12:55:50;99957.00;;;2.42;58.99
29733;BME280;16643;43.158;25.302;2023-02-10T12:58:18;99968.47;;;2.53;56.28
29733;BME280;16643;43.158;25.302;2023-02-10T13:00:50;99961.00;;;2.59;57.47
29733;BME280;16643;43.158;25.302;2023-02-10T13:03:25;99949.00;;;2.86;57.21
29733;BME280;16643;43.158;25.302;2023-02-10T13:06:07;99954.34;;;2.94;56.73
29733;BME280;16643;43.158;25.302;2023-02-10T13:08:37;99956.06;;;2.93;56.37
29733;BME280;16643;43.158;25.302;2023-02-10T13:11:10;99952.91;;;3.02;56.44
29733;BME280;16643;43.158;25.302;2023-02-10T13:13:38;99957.63;;;2.88;58.02
29733;BME280;16643;43.158;25.302;2023-02-10T13:16:15;99948.56;;;2.73;56.36
29733;BME280;16643;43.158;25.302;2023-02-10T13:21:29;99955.00;;;2.59;57.03
29733;BME280;16643;43.158;25.302;2023-02-10T13:29:21;99937.03;;;2.59;58.22
29733;BME280;16643;43.158;25.302;2023-02-10T13:34:21;99949.84;;;2.59;57.07
29733;BME280;16643;43.158;25.302;2023-02-10T13:37:07;99950.63;;;2.56;55.96
29733;BME280;16643;43.158;25.302;2023-02-10T13:39:34;99949.53;;;2.48;58.29
29733;BME280;16643;43.158;25.302;2023-02-10T13:42:06;99948.50;;;2.17;57.25
29733;BME280;16643;43.158;25.302;2023-02-10T13:44:32;99942.56;;;2.18;58.82
29733;BME280;16643;43.158;25.302;2023-02-10T13:50:01;99929.94;;;2.25;57.73
29733;BME280;16643;43.158;25.302;2023-02-10T13:52:29;99941.63;;;2.16;57.50
29733;BME280;16643;43.158;25.302;2023-02-10T13:55:01;99940.66;;;1.88;57.60
29733;BME280;16643;43.158;25.302;2023-02-10T13:57:37;99939.91;;;1.90;58.45
29733;BME280;16643;43.158;25.302;2023-02-10T14:02:37;99938.75;;;1.82;60.47
29733;BME280;16643;43.158;25.302;2023-02-10T14:05:03;99930.66;;;1.95;60.97
29733;BME280;16643;43.158;25.302;2023-02-10T14:10:38;99935.28;;;1.80;58.30
29733;BME280;16643;43.158;25.302;2023-02-10T14:12:54;99939.91;;;1.19;60.36
29733;BME280;16643;43.158;25.302;2023-02-10T14:15:25;99949.44;;;0.56;62.46
29733;BME280;16643;43.158;25.302;2023-02-10T14:18:25;99942.47;;;0.31;64.81
29733;BME280;16643;43.158;25.302;2023-02-10T14:20:43;99945.28;;;0.37;65.26
29733;BME280;16643;43.158;25.302;2023-02-10T14:23:15;99950.16;;;0.31;65.94
29733;BME280;16643;43.158;25.302;2023-02-10T14:25:42;99943.38;;;0.11;65.05
29733;BME280;16643;43.158;25.302;2023-02-10T14:28:19;99950.59;;;0.21;66.95
29733;BME280;16643;43.158;25.302;2023-02-10T14:30:45;99948.91;;;0.21;66.61
29733;BME280;16643;43.158;25.302;2023-02-10T14:35:50;99948.56;;;0.14;68.16
29733;BME280;16643;43.158;25.302;2023-02-10T14:38:19;99954.25;;;0.07;67.30
29733;BME280;16643;43.158;25.302;2023-02-10T14:40:45;99951.78;;;-0.11;69.01
29733;BME280;16643;43.158;25.302;2023-02-10T14:43:13;99950.22;;;-0.28;71.31
29733;BME280;16643;43.158;25.302;2023-02-10T14:45:44;99947.66;;;-0.28;72.11
29733;BME280;16643;43.158;25.302;2023-02-10T14:48:11;99944.91;;;-0.33;71.59
29733;BME280;16643;43.158;25.302;2023-02-10T14:50:39;99948.09;;;-0.39;72.54